Time;durP1;ratioP1;P1;durP2;ratioP2;P2;SDS_P1;SDS_P2;PMS_P1;PMS_P2;Temp;Humidity;BMP_temperature;BMP_pressure;BME280_temperature;BME280_humidity;BME280_pressure;Samples;Min_cycle;Max_cycle;Signal;HPM_P1;HPM_P2
2022/12/21 00:01:24;;;;;;;29.45;21.30;;;;;;;14.02;65.15;100957.06;5096014;28;20074;-67
2022/12/21 00:03:53;;;;;;;32.83;23.00;;;;;;;14.02;64.61;100959.75;5095916;28;20062;-68
2022/12/21 00:06:21;;;;;;;29.75;21.50;;;;;;;13.99;64.93;100958.16;5095825;28;20051;-67
2022/12/21 00:08:49;;;;;;;33.50;22.98;;;;;;;13.97;64.71;100955.59;5095219;28;20432;-67
2022/12/21 00:11:16;;;;;;;32.83;22.10;;;;;;;13.97;65.17;100961.00;5079567;28;20048;-67
2022/12/21 00:13:43;;;;;;;35.58;23.85;;;;;;;13.95;64.97;100959.41;5075468;28;20052;-67
2022/12/21 00:16:13;;;;;;;31.40;22.23;;;;;;;13.94;64.83;100955.00;5074744;28;20491;-68
2022/12/21 00:18:41;;;;;;;34.08;21.75;;;;;;;13.94;64.71;100957.69;5090800;28;20079;-66
2022/12/21 00:21:09;;;;;;;38.13;24.13;;;;;;;13.94;64.90;100955.84;5074821;28;20036;-67
2022/12/21 00:23:37;;;;;;;31.88;23.15;;;;;;;13.93;64.69;100943.34;5075204;28;20048;-68
2022/12/21 00:26:05;;;;;;;35.58;23.95;;;;;;;13.93;65.15;100953.28;5075364;28;20506;-67
2022/12/21 00:28:31;;;;;;;33.55;22.98;;;;;;;13.92;64.87;100938.91;5083871;28;20428;-67
2022/12/21 00:31:10;;;;;;;38.58;25.02;;;;;;;13.92;65.25;100948.88;5095493;28;20505;-67
2022/12/21 00:33:38;;;;;;;35.40;23.15;;;;;;;13.93;64.75;100939.78;5090038;28;20044;-67
2022/12/21 00:36:07;;;;;;;31.23;22.70;;;;;;;13.93;64.65;100935.22;5075014;28;20391;-67
2022/12/21 00:38:34;;;;;;;73.65;28.63;;;;;;;13.95;64.67;100943.22;5082343;28;20375;-67
2022/12/21 00:41:03;;;;;;;33.45;21.58;;;;;;;13.94;64.85;100942.34;5093915;28;20547;-67
2022/12/21 00:43:34;;;;;;;30.83;21.40;;;;;;;13.94;64.76;100942.34;5094891;28;20044;-67
2022/12/21 00:46:00;;;;;;;30.83;20.77;;;;;;;13.94;64.62;100944.19;5095460;28;20390;-68
2022/12/21 00:48:28;;;;;;;28.95;21.00;;;;;;;13.91;64.63;100945.31;5093557;28;20028;-68
2022/12/21 00:51:09;;;;;;;33.05;21.10;;;;;;;13.90;64.47;100954.38;5093757;28;20031;-68
2022/12/21 00:53:36;;;;;;;29.60;21.33;;;;;;;13.87;64.57;100960.03;5094870;28;20043;-68
2022/12/21 00:56:05;;;;;;;34.53;23.10;;;;;;;13.86;64.77;100965.56;5094964;28;20445;-67
2022/12/21 00:58:33;;;;;;;30.15;20.40;;;;;;;13.85;64.71;100970.13;5086657;28;20429;-67
2022/12/21 01:01:08;;;;;;;30.75;21.00;;;;;;;13.84;64.44;100963.00;5074535;28;20059;-67
2022/12/21 01:03:35;;;;;;;30.95;22.00;;;;;;;13.84;64.67;100973.78;5073011;28;20044;-68
2022/12/21 01:06:02;;;;;;;30.23;21.67;;;;;;;13.81;64.76;100971.34;5074366;28;20068;-67
2022/12/21 01:08:29;;;;;;;30.98;20.98;;;;;;;13.80;64.46;100982.28;5080910;28;20028;-67
2022/12/21 01:10:58;;;;;;;35.15;22.80;;;;;;;13.77;64.22;100977.13;5094974;28;20036;-67
2022/12/21 01:13:25;;;;;;;56.35;26.30;;;;;;;13.75;64.58;100976.41;5094570;28;20051;-67
2022/12/21 01:15:51;;;;;;;37.50;25.33;;;;;;;13.72;64.54;100974.81;5093557;28;20068;-68
2022/12/21 01:18:19;;;;;;;40.58;26.98;;;;;;;13.65;64.32;100981.69;5092556;28;20051;-67
2022/12/21 01:20:49;;;;;;;34.63;23.92;;;;;;;13.64;64.73;100993.47;5093258;28;20047;-67
2022/12/21 01:23:17;;;;;;;34.70;24.58;;;;;;;13.63;64.79;100995.31;5093153;28;20040;-67
2022/12/21 01:25:45;;;;;;;36.00;25.02;;;;;;;13.63;64.28;100992.63;5094458;28;20069;-67
2022/12/21 01:28:12;;;;;;;32.63;22.85;;;;;;;13.62;64.42;100993.59;5092236;28;20044;-67
2022/12/21 01:30:40;;;;;;;31.55;22.73;;;;;;;13.62;64.53;100988.19;5094456;28;20051;-67
2022/12/21 01:33:13;;;;;;;59.17;25.00;;;;;;;13.59;64.45;100996.53;5094182;28;20123;-68
2022/12/21 01:35:41;;;;;;;28.60;20.42;;;;;;;13.59;64.26;100996.53;5094443;28;20042;-67
2022/12/21 01:38:08;;;;;;;30.98;22.65;;;;;;;13.59;64.38;100990.28;5093427;28;20028;-67
2022/12/21 01:40:35;;;;;;;31.42;23.75;;;;;;;13.59;64.44;100984.91;5092691;28;20410;-67
2022/12/21 01:43:15;;;;;;;28.00;22.38;;;;;;;13.57;64.40;100978.75;5093979;28;20047;-67
2022/12/21 01:45:42;;;;;;;27.17;21.13;;;;;;;13.59;64.77;100980.34;5092803;28;20067;-69
2022/12/21 01:48:15;;;;;;;29.20;22.08;;;;;;;13.60;64.41;100992.00;5093289;28;20051;-67
2022/12/21 01:51:00;;;;;;;29.02;20.50;;;;;;;13.60;64.58;100992.00;5094358;28;20036;-67
2022/12/21 01:53:31;;;;;;;31.75;23.05;;;;;;;13.60;64.31;100992.88;5093661;28;20097;-68
2022/12/21 01:56:02;;;;;;;30.98;23.00;;;;;;;13.60;64.65;100992.88;5094009;28;20062;-68
2022/12/21 01:58:30;;;;;;;28.85;21.60;;;;;;;13.59;64.66;100998.38;5092464;28;20406;-68
2022/12/21 02:00:59;;;;;;;36.80;24.38;;;;;;;13.57;64.10;100998.50;5092477;28;20072;-67
2022/12/21 02:03:33;;;;;;;39.35;26.23;;;;;;;13.57;64.24;100997.66;5092165;28;20051;-67
2022/12/21 02:06:18;;;;;;;31.33;23.42;;;;;;;13.55;64.38;100994.22;5091561;28;20048;-68
2022/12/21 02:08:46;;;;;;;72.20;25.88;;;;;;;13.56;64.26;101004.03;5094114;28;20098;-68
2022/12/21 02:11:13;;;;;;;35.80;23.63;;;;;;;13.54;64.24;101000.59;5092345;28;20447;-68
2022/12/21 02:13:41;;;;;;;29.88;21.35;;;;;;;13.51;64.07;100988.22;5093496;28;20055;-68
2022/12/21 02:16:26;;;;;;;32.58;23.02;;;;;;;13.50;64.03;100989.19;5086641;28;20111;-68
2022/12/21 02:19:02;;;;;;;35.63;22.98;;;;;;;13.50;64.15;100985.66;5083476;28;20044;-68
2022/12/21 02:21:37;;;;;;;30.23;22.27;;;;;;;13.47;64.32;100978.66;5094146;28;20371;-68
2022/12/21 02:24:41;;;;;;;41.10;26.67;;;;;;;13.44;64.23;100969.97;5092368;28;20524;-68
2022/12/21 02:27:16;;;;;;;40.00;23.77;;;;;;;13.42;64.33;100974.63;5084553;28;20414;-68
2022/12/21 02:30:06;;;;;;;185.60;43.97;;;;;;;13.40;64.15;100980.13;5093509;28;20040;-68
2022/12/21 02:33:02;;;;;;;38.30;24.88;;;;;;;13.40;64.42;100984.69;5093472;28;20052;-68
2022/12/21 02:35:52;;;;;;;48.70;26.23;;;;;;;13.38;64.15;100982.09;5092073;28;20041;-67
2022/12/21 02:38:56;;;;;;;41.42;24.80;;;;;;;13.36;64.37;100974.09;5072146;28;20047;-68
2022/12/21 02:41:36;;;;;;;35.28;23.30;;;;;;;13.36;64.33;100966.00;5076048;28;20044;-68
2022/12/21 02:44:29;;;;;;;43.05;26.75;;;;;;;13.34;64.31;100961.72;5077123;28;20514;-68
2022/12/21 02:47:00;;;;;;;49.33;28.08;;;;;;;13.33;64.58;100963.56;5087408;28;20048;-68
2022/12/21 02:49:37;;;;;;;46.80;26.02;;;;;;;13.31;64.33;100961.97;5096568;28;20047;-67
2022/12/21 02:52:12;;;;;;;93.60;35.00;;;;;;;13.29;64.49;100958.53;5097346;28;20487;-68
2022/12/21 02:54:40;;;;;;;53.03;28.73;;;;;;;13.27;64.25;100963.19;5097478;28;20490;-68
2022/12/21 02:57:07;;;;;;;44.58;26.77;;;;;;;13.24;64.30;100964.31;5094530;28;20135;-67
2022/12/21 02:59:40;;;;;;;38.35;26.25;;;;;;;13.23;64.60;100962.59;5095839;28;20136;-68
2022/12/21 03:02:28;;;;;;;37.75;25.45;;;;;;;13.23;64.76;100976.06;5095762;28;20043;-68
2022/12/21 03:05:01;;;;;;;38.55;24.98;;;;;;;13.24;64.55;100974.22;5095888;28;20040;-68
2022/12/21 03:07:49;;;;;;;51.97;27.00;;;;;;;13.22;64.73;100976.19;5095291;28;20047;-68
2022/12/21 03:10:52;;;;;;;76.55;29.73;;;;;;;13.21;64.77;100961.00;5095851;28;20071;-68
2022/12/21 03:13:29;;;;;;;40.97;26.38;;;;;;;13.17;64.38;100962.22;5080055;28;20495;-68
2022/12/21 03:16:19;;;;;;;41.50;26.15;;;;;;;13.14;64.47;100975.91;5095485;28;20044;-71
2022/12/21 03:19:06;;;;;;;42.88;26.80;;;;;;;13.12;64.45;100967.94;5095721;28;20040;-71
2022/12/21 03:21:46;;;;;;;39.35;25.85;;;;;;;13.13;64.66;100972.34;5096020;28;20131;-71
2022/12/21 03:24:30;;;;;;;39.45;25.48;;;;;;;13.13;64.67;100964.25;5094160;28;20070;-69
2022/12/21 03:27:05;;;;;;;35.78;25.05;;;;;;;13.14;64.35;100960.59;5076428;28;20048;-68
2022/12/21 03:29:36;;;;;;;;;;;;;;;13.16;64.34;100963.16;5076732;28;20048;-68
2022/12/21 03:32:09;;;;;;;39.88;25.13;;;;;;;13.19;64.38;100955.72;5076512;28;19927;-67
2022/12/21 03:34:40;;;;;;;42.58;25.55;;;;;;;13.18;64.55;100943.22;5079633;28;20520;-68
2022/12/21 03:37:14;;;;;;;42.30;27.00;;;;;;;13.18;64.67;100950.44;5096539;28;20036;-67
2022/12/21 03:39:47;;;;;;;47.25;27.17;;;;;;;13.16;64.53;100947.84;5095284;28;20429;-68
2022/12/21 03:42:25;;;;;;;54.65;29.52;;;;;;;13.15;64.48;100937.19;5087748;28;20056;-69
2022/12/21 03:44:57;;;;;;;39.40;25.30;;;;;;;13.14;64.30;100930.94;5095220;28;20054;-68
2022/12/21 03:47:29;;;;;;;48.08;29.58;;;;;;;13.14;64.55;100932.78;5096522;28;20482;-68
2022/12/21 03:50:04;;;;;;;51.85;29.77;;;;;;;13.12;64.66;100940.13;5096467;28;20040;-67
2022/12/21 03:52:48;;;;;;;52.15;29.15;;;;;;;13.09;64.45;100951.16;5094512;28;20059;-68
2022/12/21 03:55:21;;;;;;;48.03;27.90;;;;;;;13.08;64.52;100958.38;5096178;28;20448;-68
2022/12/21 03:57:50;;;;;;;51.38;29.27;;;;;;;13.08;64.48;100952.13;5096180;28;20516;-67
2022/12/21 04:00:16;;;;;;;47.03;27.55;;;;;;;13.07;64.46;100947.72;5096207;28;20040;-68
2022/12/21 04:02:59;;;;;;;42.15;26.25;;;;;;;13.03;64.39;100939.88;5095306;28;20036;-67
2022/12/21 04:05:30;;;;;;;48.92;25.17;;;;;;;13.02;64.70;100923.81;5095280;28;20123;-67
2022/12/21 04:07:57;;;;;;;44.15;23.95;;;;;;;12.97;64.65;100928.72;5096426;28;20383;-68
2022/12/21 04:10:25;;;;;;;40.20;24.27;;;;;;;12.95;64.52;100936.94;5096044;28;20490;-67
2022/12/21 04:12:52;;;;;;;39.03;24.15;;;;;;;12.96;64.99;100937.78;5095224;28;20101;-67
2022/12/21 04:15:21;;;;;;;39.13;23.63;;;;;;;12.99;64.96;100941.09;5095535;28;20495;-67
2022/12/21 04:17:50;;;;;;;40.72;23.50;;;;;;;12.99;64.72;100934.84;5095994;28;20036;-67
2022/12/21 04:20:25;;;;;;;38.67;21.27;;;;;;;13.00;64.49;100917.69;5095675;28;20036;-66
2022/12/21 04:28:27;;;;;;;29.83;16.10;;;;;;;12.98;64.07;100925.91;5095802;28;20501;-68
2022/12/21 04:31:14;;;;;;;26.85;14.93;;;;;;;12.99;64.40;100948.34;5095475;28;20068;-67
2022/12/21 04:33:40;;;;;;;25.38;15.07;;;;;;;12.96;64.46;100952.13;5095149;28;20058;-67
2022/12/21 04:38:52;;;;;;;27.70;14.07;;;;;;;12.93;64.04;100951.50;5095459;28;20048;-68
2022/12/21 04:41:19;;;;;;;27.80;15.65;;;;;;;12.88;64.49;100951.88;5095277;28;20043;-68
2022/12/21 04:43:45;;;;;;;26.98;14.93;;;;;;;12.87;64.53;100962.78;5095118;28;20047;-67
2022/12/21 04:46:14;;;;;;;28.83;15.27;;;;;;;12.85;64.54;100957.50;5102990;28;20055;-67
2022/12/21 04:48:43;;;;;;;27.15;16.13;;;;;;;12.86;64.37;100951.16;5110929;28;20414;-67
2022/12/21 04:51:22;;;;;;;29.88;16.65;;;;;;;12.85;64.15;100946.72;5095326;28;20090;-67
2022/12/21 04:53:50;;;;;;;29.60;15.95;;;;;;;12.87;64.32;100952.88;5093532;28;20043;-67
2022/12/21 04:56:17;;;;;;;29.67;17.30;;;;;;;12.88;64.44;100945.63;5094875;28;20036;-67
2022/12/21 04:58:44;;;;;;;36.72;17.25;;;;;;;12.88;64.35;100945.63;5095720;28;20054;-68
2022/12/21 05:01:16;;;;;;;26.50;16.60;;;;;;;12.87;64.47;100941.22;5095114;28;20081;-67
2022/12/21 05:03:43;;;;;;;29.92;17.90;;;;;;;12.87;64.11;100936.69;5094453;28;20067;-67
2022/12/21 05:06:15;;;;;;;29.38;15.93;;;;;;;12.87;64.54;100943.91;5086941;28;20054;-68
2022/12/21 05:08:42;;;;;;;29.45;16.92;;;;;;;12.87;64.06;100941.22;5085206;28;20514;-67
2022/12/21 05:11:11;;;;;;;31.15;17.35;;;;;;;12.85;64.26;100930.56;5094357;28;20055;-67
2022/12/21 05:13:38;;;;;;;36.00;19.05;;;;;;;12.85;64.16;100932.41;5094462;28;20040;-67
2022/12/21 05:16:07;;;;;;;31.40;19.05;;;;;;;12.85;64.27;100932.41;5094292;28;20119;-67
2022/12/21 05:18:35;;;;;;;35.58;19.42;;;;;;;12.83;64.27;100927.13;5074451;28;20086;-68
2022/12/21 05:21:01;;;;;;;32.75;18.90;;;;;;;12.83;63.98;100926.28;5074517;28;20044;-67
2022/12/21 05:23:28;;;;;;;37.78;19.70;;;;;;;12.82;64.28;100914.63;5073827;28;20048;-67
2022/12/21 05:25:55;;;;;;;29.23;17.08;;;;;;;12.81;64.27;100907.53;5074101;28;20044;-67
2022/12/21 05:28:21;;;;;;;28.92;17.58;;;;;;;12.79;64.26;100914.88;5074011;28;20044;-68
2022/12/21 05:30:48;;;;;;;29.95;17.70;;;;;;;12.77;64.30;100926.75;5074113;28;20111;-67
2022/12/21 05:33:15;;;;;;;29.33;17.20;;;;;;;12.76;63.89;100920.50;5074138;28;20394;-67
2022/12/21 05:35:42;;;;;;;30.33;15.75;;;;;;;12.75;64.30;100934.09;5073981;28;20530;-68
2022/12/21 05:38:08;;;;;;;23.92;14.23;;;;;;;12.73;64.26;100942.31;5073731;28;20512;-67
2022/12/21 05:40:35;;;;;;;23.73;14.25;;;;;;;12.71;64.54;100947.81;5073867;28;20555;-68
2022/12/21 05:43:03;;;;;;;24.00;14.70;;;;;;;12.72;64.21;100946.84;5073569;28;20037;-68
2022/12/21 05:45:30;;;;;;;24.90;14.43;;;;;;;12.70;64.30;100937.16;5073963;28;20048;-68
2022/12/21 05:47:57;;;;;;;22.25;13.85;;;;;;;12.70;64.07;100938.03;5073581;28;20498;-67
2022/12/21 05:50:24;;;;;;;24.33;14.45;;;;;;;12.69;64.23;100939.00;5073844;28;20169;-67
2022/12/21 05:52:52;;;;;;;23.08;13.68;;;;;;;12.69;64.30;100932.75;5073539;28;20041;-68
2022/12/21 05:55:19;;;;;;;23.98;13.77;;;;;;;12.70;64.21;100921.84;5073464;28;20505;-67
2022/12/21 05:57:45;;;;;;;24.85;13.45;;;;;;;12.69;64.37;100917.44;5073579;28;20445;-67
2022/12/21 06:00:12;;;;;;;21.77;12.98;;;;;;;12.69;64.17;100917.44;5073664;28;20051;-68
2022/12/21 06:02:41;;;;;;;28.85;15.95;;;;;;;12.69;64.09;100911.19;5073401;28;20036;-67
2022/12/21 06:05:08;;;;;;;21.98;13.95;;;;;;;12.68;64.32;100910.34;5074010;28;20068;-68
2022/12/21 06:07:35;;;;;;;26.48;14.73;;;;;;;12.69;63.97;100908.50;5073480;28;20032;-67
2022/12/21 06:10:02;;;;;;;24.85;14.95;;;;;;;12.66;63.96;100904.22;5073665;28;20094;-67
2022/12/21 06:12:31;;;;;;;26.38;14.68;;;;;;;12.67;64.10;100908.63;5073270;28;20044;-67
2022/12/21 06:14:58;;;;;;;27.80;14.50;;;;;;;12.69;64.17;100903.13;5072806;28;20048;-68
2022/12/21 06:17:29;;;;;;;24.77;15.50;;;;;;;12.67;63.93;100899.69;5072043;28;20041;-68
2022/12/21 06:19:56;;;;;;;32.47;16.15;;;;;;;12.65;64.07;100907.88;5089256;28;20040;-68
2022/12/21 06:22:23;;;;;;;25.08;15.63;;;;;;;12.62;63.85;100918.88;5073364;28;20059;-67
2022/12/21 06:24:49;;;;;;;27.63;15.40;;;;;;;12.61;63.89;100916.28;5073598;28;20410;-67
2022/12/21 06:27:16;;;;;;;28.02;15.48;;;;;;;12.59;63.77;100916.41;5088403;28;20052;-67
2022/12/21 06:29:43;;;;;;;25.98;14.45;;;;;;;12.57;63.68;100912.13;5093514;28;20436;-67
2022/12/21 06:32:10;;;;;;;23.00;14.63;;;;;;;12.53;64.03;100903.44;5093136;28;20036;-68
2022/12/21 06:34:37;;;;;;;24.52;14.63;;;;;;;12.51;63.75;100902.69;5092489;28;20549;-67
2022/12/21 06:37:03;;;;;;;25.88;14.85;;;;;;;12.48;64.04;100918.22;5093382;28;20483;-68
2022/12/21 06:39:30;;;;;;;20.67;14.30;;;;;;;12.46;63.71;100912.09;5092881;28;20486;-68
2022/12/21 06:41:56;;;;;;;28.20;13.95;;;;;;;12.44;64.03;100906.84;5093043;28;20075;-67
2022/12/21 06:44:23;;;;;;;22.60;13.57;;;;;;;12.42;64.00;100919.56;5091466;28;20048;-67
2022/12/21 06:46:50;;;;;;;24.05;14.43;;;;;;;12.42;64.08;100919.56;5078579;28;20055;-66
2022/12/21 06:49:16;;;;;;;22.52;14.20;;;;;;;12.40;64.11;100916.13;5073004;28;20127;-66
2022/12/21 06:51:43;;;;;;;23.63;13.80;;;;;;;12.40;63.73;100910.75;5073104;28;20051;-67
2022/12/21 06:54:11;;;;;;;25.58;14.23;;;;;;;12.39;63.97;100906.34;5072988;28;20033;-66
2022/12/21 06:56:38;;;;;;;24.40;14.95;;;;;;;12.39;63.72;100927.88;5072949;28;20102;-67
2022/12/21 06:59:05;;;;;;;21.55;13.55;;;;;;;12.38;63.87;100931.56;5072977;28;20033;-67
2022/12/21 07:01:34;;;;;;;23.52;13.75;;;;;;;12.38;63.82;100926.16;5073056;28;20533;-67
2022/12/21 07:04:01;;;;;;;21.95;13.40;;;;;;;12.37;64.09;100930.69;5082200;28;20036;-67
2022/12/21 07:06:30;;;;;;;25.88;13.95;;;;;;;12.37;63.83;100936.09;5072734;28;20490;-67
2022/12/21 07:08:57;;;;;;;21.13;13.27;;;;;;;12.37;64.05;100932.53;5072948;28;20526;-70
2022/12/21 07:11:26;;;;;;;28.15;14.48;;;;;;;12.37;63.79;100935.22;5072523;28;20064;-68
2022/12/21 07:13:53;;;;;;;27.52;14.02;;;;;;;12.35;63.98;100935.34;5076269;28;20383;-68
2022/12/21 07:16:20;;;;;;;22.48;12.32;;;;;;;12.34;63.72;100940.84;5071243;28;20048;-68
2022/12/21 07:18:48;;;;;;;21.75;13.57;;;;;;;12.31;63.82;100943.78;5088598;28;20402;-68
2022/12/21 07:21:17;;;;;;;25.45;14.05;;;;;;;12.29;64.08;100949.28;5072879;28;20036;-68
2022/12/21 07:23:44;;;;;;;19.08;12.75;;;;;;;12.26;63.75;100943.28;5086693;28;20050;-68
2022/12/21 07:26:13;;;;;;;23.52;12.82;;;;;;;12.24;63.74;100950.63;5094930;28;20402;-68
2022/12/21 07:28:43;;;;;;;22.58;13.07;;;;;;;12.24;63.78;100947.91;5096701;28;20051;-68
2022/12/21 07:31:12;;;;;;;23.83;12.80;;;;;;;12.23;63.96;100948.91;5095335;28;20040;-69
2022/12/21 07:33:42;;;;;;;24.83;13.82;;;;;;;12.22;63.86;100945.34;5089444;28;20098;-68
2022/12/21 07:36:10;;;;;;;25.27;13.60;;;;;;;12.22;63.93;100949.88;5096003;28;20052;-68
2022/12/21 07:38:39;;;;;;;22.08;12.70;;;;;;;12.19;64.06;100939.34;5096111;28;20446;-68
2022/12/21 07:41:08;;;;;;;25.75;13.02;;;;;;;12.15;63.92;100946.78;5095261;28;20505;-67
2022/12/21 07:43:35;;;;;;;27.15;12.73;;;;;;;12.13;64.25;100955.94;5096599;28;20040;-68
2022/12/21 07:46:13;;;;;;;21.98;11.70;;;;;;;12.12;64.08;100943.47;5094576;28;20602;-67
2022/12/21 07:48:40;;;;;;;26.17;11.90;;;;;;;12.10;64.01;100948.97;5096112;28;20046;-67
2022/12/21 07:51:07;;;;;;;22.55;11.52;;;;;;;12.09;64.31;100947.25;5095264;28;20416;-68
2022/12/21 07:53:34;;;;;;;24.38;12.35;;;;;;;12.09;64.13;100948.13;5095857;28;20044;-68
2022/12/21 07:56:07;;;;;;;19.30;11.77;;;;;;;12.09;64.21;100966.97;5089891;28;20049;-68
2022/12/21 07:58:34;;;;;;;22.58;12.00;;;;;;;12.11;64.27;100974.06;5076120;28;20045;-68
2022/12/21 08:01:09;;;;;;;20.88;11.52;;;;;;;12.10;64.49;100981.28;5077249;28;20041;-68
2022/12/21 08:03:37;;;;;;;23.97;13.13;;;;;;;12.11;64.01;100980.31;5075443;28;20132;-68
2022/12/21 08:06:06;;;;;;;22.08;12.38;;;;;;;12.12;64.28;100978.47;5075086;28;20330;-68
2022/12/21 08:08:37;;;;;;;20.17;11.20;;;;;;;12.12;64.17;100983.84;5075636;28;20045;-68
2022/12/21 08:11:04;;;;;;;19.95;11.90;;;;;;;12.13;64.48;100991.81;5088209;28;20127;-68
2022/12/21 08:13:31;;;;;;;23.10;12.60;;;;;;;12.11;64.26;100993.75;5095658;28;20036;-68
2022/12/21 08:16:02;;;;;;;21.52;12.25;;;;;;;12.11;64.62;100992.91;5094174;28;20126;-68
2022/12/21 08:18:29;;;;;;;28.50;12.90;;;;;;;12.12;64.53;100995.47;5095461;28;20126;-67
2022/12/21 08:20:56;;;;;;;31.23;12.95;;;;;;;12.11;64.54;100999.16;5094840;28;20048;-66
2022/12/21 08:23:24;;;;;;;28.42;12.73;;;;;;;12.09;64.29;100998.41;5095283;28;20144;-67
2022/12/21 08:25:51;;;;;;;25.00;12.05;;;;;;;12.06;64.29;100986.03;5095402;28;20032;-66
2022/12/21 08:28:18;;;;;;;19.73;12.45;;;;;;;12.05;64.43;100988.84;5093799;28;20139;-68
2022/12/21 08:30:45;;;;;;;18.58;11.57;;;;;;;12.03;64.21;100980.03;5093733;28;20089;-67
2022/12/21 08:33:11;;;;;;;19.80;11.85;;;;;;;12.02;64.16;101000.69;5094142;28;20126;-68
2022/12/21 08:35:38;;;;;;;18.20;10.90;;;;;;;12.02;64.19;101003.38;5094994;28;20056;-68
2022/12/21 08:38:04;;;;;;;21.25;12.15;;;;;;;12.03;64.18;101001.56;5094284;28;20039;-68
2022/12/21 08:40:31;;;;;;;18.75;10.98;;;;;;;12.04;64.02;100996.06;5094280;28;20036;-67
2022/12/21 08:42:58;;;;;;;20.52;12.02;;;;;;;12.03;64.24;100999.72;5094914;28;20123;-68
2022/12/21 08:45:24;;;;;;;19.38;11.68;;;;;;;12.04;64.38;100996.06;5094940;28;20134;-67
2022/12/21 08:47:51;;;;;;;19.45;10.75;;;;;;;12.05;64.04;100987.00;5094744;28;20044;-67
2022/12/21 08:50:18;;;;;;;23.35;12.57;;;;;;;12.07;64.06;100995.81;5098431;28;20436;-66
2022/12/21 08:52:44;;;;;;;21.73;11.32;;;;;;;12.08;64.30;100992.16;5109037;28;20035;-67
2022/12/21 08:55:11;;;;;;;21.52;11.48;;;;;;;12.08;64.14;100988.59;5096535;28;20074;-71
2022/12/21 08:57:38;;;;;;;23.35;12.82;;;;;;;12.08;64.25;100994.00;5081730;28;20046;-67
2022/12/21 09:00:09;;;;;;;20.88;11.88;;;;;;;12.09;64.41;100996.56;5106215;28;20513;-67
2022/12/21 09:02:36;;;;;;;22.20;13.18;;;;;;;12.07;64.30;100995.81;5107941;28;20097;-67
2022/12/21 09:05:04;;;;;;;23.10;11.95;;;;;;;12.09;64.07;100999.25;5097998;28;20080;-67
2022/12/21 09:07:31;;;;;;;22.10;11.60;;;;;;;12.09;64.36;101001.09;5110611;28;20047;-66
2022/12/21 09:09:57;;;;;;;21.90;12.68;;;;;;;12.09;64.37;100993.88;5102433;28;20072;-67
2022/12/21 09:12:24;;;;;;;28.45;13.15;;;;;;;12.14;64.24;101004.31;5103139;28;20036;-66
2022/12/21 09:14:51;;;;;;;21.48;12.10;;;;;;;12.16;64.38;101006.88;5109631;28;20039;-67
2022/12/21 09:17:17;;;;;;;20.65;12.27;;;;;;;12.20;64.64;101016.44;5097675;28;20036;-67
2022/12/21 09:19:51;;;;;;;20.90;12.23;;;;;;;12.23;64.26;101014.38;5114799;28;20114;-67
2022/12/21 09:22:17;;;;;;;21.90;12.65;;;;;;;12.26;64.45;101015.97;5114705;28;20043;-67
2022/12/21 09:24:44;;;;;;;25.25;12.73;;;;;;;12.28;64.31;101009.50;5100070;28;20054;-67
2022/12/21 09:27:10;;;;;;;23.88;13.05;;;;;;;12.30;64.63;100995.91;5110580;28;20054;-67
2022/12/21 09:29:37;;;;;;;22.45;13.98;;;;;;;12.33;64.43;100991.16;5099129;28;20050;-67
2022/12/21 09:32:04;;;;;;;26.85;13.68;;;;;;;12.36;64.26;100996.31;5104230;28;20127;-67
2022/12/21 09:34:31;;;;;;;27.20;13.60;;;;;;;12.38;64.68;100994.38;5106642;28;20374;-67
2022/12/21 09:36:59;;;;;;;34.45;16.33;;;;;;;12.39;64.73;100987.13;5098041;28;20051;-67
2022/12/21 09:39:45;;;;;;;27.98;14.95;;;;;;;12.44;64.30;100986.78;5085784;28;20074;-67
2022/12/21 09:42:33;;;;;;;29.08;15.55;;;;;;;12.45;64.50;100996.59;5103958;28;20035;-66
2022/12/21 09:45:21;;;;;;;28.15;15.38;;;;;;;12.45;64.82;101002.84;5098261;28;20040;-67
2022/12/21 09:47:57;;;;;;;28.92;15.18;;;;;;;12.47;65.03;101000.03;5086460;28;20039;-67
2022/12/21 09:50:27;;;;;;;32.97;15.63;;;;;;;12.45;64.60;100997.44;5114527;28;20039;-67
2022/12/21 09:53:01;;;;;;;29.00;15.95;;;;;;;12.45;64.78;100992.06;5098358;27;20043;-67
2022/12/21 09:55:32;;;;;;;32.15;15.20;;;;;;;12.47;65.11;101000.88;5080802;28;20051;-67
2022/12/21 09:58:06;;;;;;;26.58;14.43;;;;;;;12.51;64.90;101007.75;5105834;28;20130;-67
2022/12/21 10:00:36;;;;;;;30.73;14.75;;;;;;;12.56;65.03;101005.56;5106265;28;20044;-67
2022/12/21 10:03:18;;;;;;;26.65;16.20;;;;;;;12.60;64.87;101007.03;5096763;28;20048;-66
2022/12/21 10:05:57;;;;;;;31.95;16.00;;;;;;;12.65;64.89;101006.72;5107638;28;20383;-67
2022/12/21 10:09:11;;;;;;;29.23;16.15;;;;;;;12.65;65.10;101004.88;5093571;28;20036;-67
2022/12/21 10:12:15;;;;;;;32.03;16.20;;;;;;;12.71;64.88;101004.41;5070567;28;20113;-67
2022/12/21 10:15:12;;;;;;;32.55;15.88;;;;;;;12.74;65.13;101008.69;5099881;28;20441;-66
2022/12/21 10:17:59;;;;;;;31.15;16.30;;;;;;;12.78;64.83;101017.41;5095548;28;20039;-66
2022/12/21 10:20:40;;;;;;;34.95;17.25;;;;;;;12.79;64.84;101003.81;5101835;28;20569;-67
2022/12/21 10:23:16;;;;;;;36.55;17.25;;;;;;;12.83;65.06;101002.59;5109902;28;20093;-67
2022/12/21 10:25:47;;;;;;;31.35;16.88;;;;;;;12.84;65.16;100998.06;5097686;28;20039;-67
2022/12/21 10:28:24;;;;;;;34.13;17.45;;;;;;;12.85;65.16;100989.00;5103302;28;20059;-66
2022/12/21 10:31:00;;;;;;;29.73;15.38;;;;;;;12.88;65.08;100995.00;5108775;28;20088;-67
2022/12/21 10:33:28;;;;;;;29.10;17.20;;;;;;;12.90;65.02;100992.19;5079911;28;20055;-67
2022/12/21 10:36:00;;;;;;;29.70;16.00;;;;;;;12.94;65.21;101004.44;5100181;28;20057;-68
2022/12/21 10:38:31;;;;;;;32.72;16.55;;;;;;;12.98;65.31;101001.41;5101623;28;20089;-69
2022/12/21 10:41:00;;;;;;;26.80;15.85;;;;;;;13.01;64.88;100998.44;5092116;28;20040;-68
2022/12/21 10:43:26;;;;;;;26.85;15.85;;;;;;;13.04;64.80;100991.97;5093115;28;20382;-68
2022/12/21 10:45:53;;;;;;;30.80;15.30;;;;;;;13.07;65.11;100994.41;5092773;28;20081;-69
2022/12/21 10:48:20;;;;;;;29.65;14.93;;;;;;;13.09;64.75;100987.06;5102778;28;20430;-69
2022/12/21 10:50:50;;;;;;;29.10;15.75;;;;;;;13.08;65.11;100985.34;5098501;28;20528;-69
2022/12/21 10:53:25;;;;;;;28.77;15.23;;;;;;;13.07;64.93;100977.38;5109678;28;20513;-69
2022/12/21 10:55:58;;;;;;;29.75;14.82;;;;;;;13.09;64.83;100984.38;5099778;28;20031;-68
2022/12/21 10:58:31;;;;;;;27.83;14.20;;;;;;;13.09;65.05;100973.59;5100552;28;20042;-68
2022/12/21 11:01:15;;;;;;;28.70;13.27;;;;;;;13.11;65.23;100973.47;5109752;28;20047;-69
2022/12/21 11:03:42;;;;;;;22.83;12.68;;;;;;;13.10;64.89;100971.75;5088071;28;20031;-69
2022/12/21 11:06:16;;;;;;;21.83;12.18;;;;;;;13.11;65.05;100978.84;5106058;28;20040;-68
2022/12/21 11:08:52;;;;;;;22.45;12.48;;;;;;;13.11;64.66;100968.94;5111213;28;20044;-68
2022/12/21 11:11:37;;;;;;;27.00;13.10;;;;;;;13.09;64.68;100967.34;5100251;28;20044;-69
2022/12/21 11:14:15;;;;;;;23.45;11.80;;;;;;;13.08;64.82;100966.47;5108391;28;20043;-69
2022/12/21 11:16:43;;;;;;;18.67;11.43;;;;;;;13.08;64.68;100963.78;5103698;28;20042;-67
2022/12/21 11:19:34;;;;;;;19.85;12.70;;;;;;;13.05;64.62;100964.03;5096843;28;20097;-67
2022/12/21 11:22:06;;;;;;;21.77;12.45;;;;;;;13.09;64.52;100968.19;5096470;28;20058;-67
2022/12/21 11:24:56;;;;;;;22.35;10.82;;;;;;;13.13;64.64;100956.19;5085505;28;20049;-67
2022/12/21 11:27:30;;;;;;;21.48;10.95;;;;;;;13.15;64.43;100953.34;5076510;28;20040;-69
2022/12/21 11:30:04;;;;;;;22.02;11.77;;;;;;;13.14;64.38;100957.03;5091940;28;20044;-67
2022/12/21 11:32:32;;;;;;;20.13;11.02;;;;;;;13.13;64.70;100961.56;5089957;28;20095;-66
2022/12/21 11:35:05;;;;;;;22.98;11.43;;;;;;;13.13;64.42;100958.88;5095543;28;20047;-66
2022/12/21 11:37:37;;;;;;;21.65;10.30;;;;;;;13.14;64.42;100962.44;5096760;28;20482;-67